sensor_id;sensor_type;location;lat;lon;timestamp;pressure;altitude;pressure_sealevel;temperature;humidity
14594;BME280;7383;52.354;9.756;2023-01-28T00:02:26;-12560.44;;;6.02;100.00
14594;BME280;7383;52.354;9.756;2023-01-28T00:04:52;-12560.44;;;6.02;100.00
14594;BME280;7383;52.354;9.756;2023-01-28T00:07:19;-12559.72;;;5.98;100.00
14594;BME280;7383;52.354;9.756;2023-01-28T00:09:47;-12559.81;;;5.99;100.00
14594;BME280;7383;52.354;9.756;2023-01-28T00:12:17;-12560.00;;;6.00;100.00
14594;BME280;7383;52.354;9.756;2023-01-28T00:14:43;-12560.34;;;6.02;100.00
14594;BME280;7383;52.354;9.756;2023-01-28T00:17:12;-12559.22;;;5.95;100.00
14594;BME280;7383;52.354;9.756;2023-01-28T00:19:39;-12559.13;;;5.94;100.00
14594;BME280;7383;52.354;9.756;2023-01-28T00:22:06;-12558.16;;;5.89;100.00
14594;BME280;7383;52.354;9.756;2023-01-28T00:24:32;-12559.22;;;5.95;100.00
14594;BME280;7383;52.354;9.756;2023-01-28T00:27:00;-12559.91;;;5.99;100.00
14594;BME280;7383;52.354;9.756;2023-01-28T00:29:29;-12560.16;;;6.01;100.00
14594;BME280;7383;52.354;9.756;2023-01-28T00:31:55;-12559.66;;;5.98;100.00
14594;BME280;7383;52.354;9.756;2023-01-28T00:34:22;-12559.81;;;5.99;100.00
14594;BME280;7383;52.354;9.756;2023-01-28T00:36:48;-12560.25;;;6.01;100.00
14594;BME280;7383;52.354;9.756;2023-01-28T00:39:22;-12560.09;;;6.00;100.00
14594;BME280;7383;52.354;9.756;2023-01-28T00:41:48;-12559.56;;;5.97;100.00
14594;BME280;7383;52.354;9.756;2023-01-28T00:44:16;-12558.94;;;5.93;100.00
14594;BME280;7383;52.354;9.756;2023-01-28T00:46:42;-12557.44;;;5.85;100.00
14594;BME280;7383;52.354;9.756;2023-01-28T00:49:09;-12557.97;;;5.88;100.00
14594;BME280;7383;52.354;9.756;2023-01-28T00:51:36;-12558.94;;;5.93;100.00
14594;BME280;7383;52.354;9.756;2023-01-28T00:54:04;-12559.03;;;5.94;100.00
14594;BME280;7383;52.354;9.756;2023-01-28T00:56:31;-12559.13;;;5.94;100.00
14594;BME280;7383;52.354;9.756;2023-01-28T00:58:58;-12558.94;;;5.93;100.00
14594;BME280;7383;52.354;9.756;2023-01-28T01:01:27;-12559.28;;;5.96;100.00
14594;BME280;7383;52.354;9.756;2023-01-28T01:03:54;-12559.91;;;5.99;100.00
14594;BME280;7383;52.354;9.756;2023-01-28T01:06:27;-12559.47;;;5.97;100.00
14594;BME280;7383;52.354;9.756;2023-01-28T01:08:54;-12559.81;;;5.99;100.00
14594;BME280;7383;52.354;9.756;2023-01-28T01:11:20;-12559.13;;;5.94;100.00
14594;BME280;7383;52.354;9.756;2023-01-28T01:13:51;-12559.03;;;5.94;100.00
14594;BME280;7383;52.354;9.756;2023-01-28T01:16:20;-12559.38;;;5.96;100.00
14594;BME280;7383;52.354;9.756;2023-01-28T01:18:49;-12560.00;;;6.00;100.00
14594;BME280;7383;52.354;9.756;2023-01-28T01:21:19;-12560.53;;;6.03;100.00
14594;BME280;7383;52.354;9.756;2023-01-28T01:23:46;-12559.81;;;5.99;100.00
14594;BME280;7383;52.354;9.756;2023-01-28T01:26:13;-12559.56;;;5.97;100.00
14594;BME280;7383;52.354;9.756;2023-01-28T01:28:40;-12558.31;;;5.90;100.00
14594;BME280;7383;52.354;9.756;2023-01-28T01:31:09;-12558.59;;;5.91;100.00
14594;BME280;7383;52.354;9.756;2023-01-28T01:33:36;-12558.25;;;5.89;100.00
14594;BME280;7383;52.354;9.756;2023-01-28T01:36:06;-12558.84;;;5.93;100.00
14594;BME280;7383;52.354;9.756;2023-01-28T01:38:33;-12559.03;;;5.94;100.00
14594;BME280;7383;52.354;9.756;2023-01-28T01:41:01;-12558.94;;;5.93;100.00
14594;BME280;7383;52.354;9.756;2023-01-28T01:43:45;-12559.91;;;5.99;100.00
14594;BME280;7383;52.354;9.756;2023-01-28T01:46:14;-12559.22;;;5.95;100.00
14594;BME280;7383;52.354;9.756;2023-01-28T01:48:42;-12559.72;;;5.98;100.00
14594;BME280;7383;52.354;9.756;2023-01-28T01:51:13;-12559.72;;;5.98;100.00
14594;BME280;7383;52.354;9.756;2023-01-28T01:53:44;-12559.91;;;5.99;100.00
14594;BME280;7383;52.354;9.756;2023-01-28T01:56:13;-12559.47;;;5.97;100.00
14594;BME280;7383;52.354;9.756;2023-01-28T01:58:43;-12559.03;;;5.94;100.00
14594;BME280;7383;52.354;9.756;2023-01-28T02:01:12;-12558.31;;;5.90;100.00
14594;BME280;7383;52.354;9.756;2023-01-28T02:03:44;-12558.16;;;5.89;100.00
14594;BME280;7383;52.354;9.756;2023-01-28T02:06:14;-12559.03;;;5.94;100.00
14594;BME280;7383;52.354;9.756;2023-01-28T02:08:41;-12558.84;;;5.93;100.00
14594;BME280;7383;52.354;9.756;2023-01-28T02:11:09;-12558.31;;;5.90;100.00
14594;BME280;7383;52.354;9.756;2023-01-28T02:13:40;-12558.84;;;5.93;100.00
14594;BME280;7383;52.354;9.756;2023-01-28T02:16:08;-12559.22;;;5.95;100.00
14594;BME280;7383;52.354;9.756;2023-01-28T02:18:36;-12559.22;;;5.95;100.00
14594;BME280;7383;52.354;9.756;2023-01-28T02:21:29;-12559.28;;;5.96;100.00
14594;BME280;7383;52.354;9.756;2023-01-28T02:27:15;-12558.94;;;5.93;100.00
14594;BME280;7383;52.354;9.756;2023-01-28T02:29:49;-12558.94;;;5.93;100.00
14594;BME280;7383;52.354;9.756;2023-01-28T02:32:24;-12558.75;;;5.92;100.00
14594;BME280;7383;52.354;9.756;2023-01-28T02:34:55;-12558.59;;;5.91;100.00
14594;BME280;7383;52.354;9.756;2023-01-28T02:37:26;-12558.41;;;5.90;100.00
14594;BME280;7383;52.354;9.756;2023-01-28T02:40:00;-12556.81;;;5.81;100.00
14594;BME280;7383;52.354;9.756;2023-01-28T02:42:29;-12554.44;;;5.68;100.00
14594;BME280;7383;52.354;9.756;2023-01-28T02:44:58;-12555.06;;;5.71;100.00
14594;BME280;7383;52.354;9.756;2023-01-28T02:47:25;-12555.78;;;5.75;100.00
14594;BME280;7383;52.354;9.756;2023-01-28T02:50:11;-12556.47;;;5.79;100.00
14594;BME280;7383;52.354;9.756;2023-01-28T02:52:51;-12557.09;;;5.83;100.00
14594;BME280;7383;52.354;9.756;2023-01-28T02:55:44;-12557.09;;;5.83;100.00
14594;BME280;7383;52.354;9.756;2023-01-28T02:58:20;-12557.09;;;5.83;100.00
14594;BME280;7383;52.354;9.756;2023-01-28T03:00:55;-12556.81;;;5.81;100.00
14594;BME280;7383;52.354;9.756;2023-01-28T03:03:31;-12556.66;;;5.80;100.00
14594;BME280;7383;52.354;9.756;2023-01-28T03:06:03;-12556.47;;;5.79;100.00
14594;BME280;7383;52.354;9.756;2023-01-28T03:08:35;-12556.03;;;5.77;100.00
14594;BME280;7383;52.354;9.756;2023-01-28T03:11:20;-12555.50;;;5.74;100.00
14594;BME280;7383;52.354;9.756;2023-01-28T03:14:05;-12555.94;;;5.76;100.00
14594;BME280;7383;52.354;9.756;2023-01-28T03:16:52;-12556.56;;;5.80;100.00
14594;BME280;7383;52.354;9.756;2023-01-28T03:19:37;-12556.91;;;5.82;100.00
14594;BME280;7383;52.354;9.756;2023-01-28T03:22:23;-12556.91;;;5.82;100.00
14594;BME280;7383;52.354;9.756;2023-01-28T03:25:07;-12557.25;;;5.84;100.00
14594;BME280;7383;52.354;9.756;2023-01-28T03:27:56;-12556.91;;;5.82;100.00
14594;BME280;7383;52.354;9.756;2023-01-28T03:30:44;-12556.47;;;5.79;100.00
14594;BME280;7383;52.354;9.756;2023-01-28T03:33:34;-12555.94;;;5.76;100.00
14594;BME280;7383;52.354;9.756;2023-01-28T03:36:19;-12556.13;;;5.77;100.00
14594;BME280;7383;52.354;9.756;2023-01-28T03:39:04;-12555.25;;;5.72;100.00
14594;BME280;7383;52.354;9.756;2023-01-28T03:41:30;-12554.81;;;5.70;100.00
14594;BME280;7383;52.354;9.756;2023-01-28T03:43:57;-12554.63;;;5.69;100.00
14594;BME280;7383;52.354;9.756;2023-01-28T03:46:37;-12555.25;;;5.72;100.00
14594;BME280;7383;52.354;9.756;2023-01-28T03:49:05;-12554.88;;;5.70;100.00
14594;BME280;7383;52.354;9.756;2023-01-28T03:51:32;-12554.38;;;5.67;100.00
14594;BME280;7383;52.354;9.756;2023-01-28T03:53:58;-12554.19;;;5.66;100.00
14594;BME280;7383;52.354;9.756;2023-01-28T03:56:25;-12555.16;;;5.72;100.00
14594;BME280;7383;52.354;9.756;2023-01-28T03:58:52;-12554.00;;;5.65;100.00
14594;BME280;7383;52.354;9.756;2023-01-28T04:01:21;-12553.56;;;5.63;100.00
14594;BME280;7383;52.354;9.756;2023-01-28T04:03:47;-12553.91;;;5.65;100.00
14594;BME280;7383;52.354;9.756;2023-01-28T04:06:15;-12553.56;;;5.63;100.00
14594;BME280;7383;52.354;9.756;2023-01-28T04:08:41;-12553.56;;;5.63;100.00
14594;BME280;7383;52.354;9.756;2023-01-28T04:11:17;-12554.19;;;5.66;100.00
14594;BME280;7383;52.354;9.756;2023-01-28T04:13:45;-12554.44;;;5.68;100.00
14594;BME280;7383;52.354;9.756;2023-01-28T04:16:13;-12554.00;;;5.65;100.00
14594;BME280;7383;52.354;9.756;2023-01-28T04:18:40;-12554.09;;;5.66;100.00
14594;BME280;7383;52.354;9.756;2023-01-28T04:21:06;-12554.19;;;5.66;100.00
14594;BME280;7383;52.354;9.756;2023-01-28T04:23:34;-12554.38;;;5.67;100.00
14594;BME280;7383;52.354;9.756;2023-01-28T04:26:01;-12554.44;;;5.68;100.00
14594;BME280;7383;52.354;9.756;2023-01-28T04:28:28;-12554.28;;;5.67;100.00
14594;BME280;7383;52.354;9.756;2023-01-28T04:30:54;-12554.44;;;5.68;100.00
14594;BME280;7383;52.354;9.756;2023-01-28T04:33:21;-12554.88;;;5.70;100.00
14594;BME280;7383;52.354;9.756;2023-01-28T04:35:47;-12555.41;;;5.73;100.00
14594;BME280;7383;52.354;9.756;2023-01-28T04:38:14;-12555.16;;;5.72;100.00
14594;BME280;7383;52.354;9.756;2023-01-28T04:40:41;-12555.06;;;5.71;100.00
14594;BME280;7383;52.354;9.756;2023-01-28T04:43:08;-12554.38;;;5.67;100.00
14594;BME280;7383;52.354;9.756;2023-01-28T04:45:34;-12553.47;;;5.62;100.00
14594;BME280;7383;52.354;9.756;2023-01-28T04:48:01;-12553.31;;;5.61;100.00
14594;BME280;7383;52.354;9.756;2023-01-28T04:50:27;-12553.41;;;5.62;100.00
14594;BME280;7383;52.354;9.756;2023-01-28T04:52:53;-12553.91;;;5.65;100.00
14594;BME280;7383;52.354;9.756;2023-01-28T04:55:20;-12553.91;;;5.65;100.00
14594;BME280;7383;52.354;9.756;2023-01-28T04:57:47;-12554.19;;;5.66;100.00
14594;BME280;7383;52.354;9.756;2023-01-28T05:00:15;-12554.53;;;5.68;100.00
14594;BME280;7383;52.354;9.756;2023-01-28T05:02:41;-12554.09;;;5.66;100.00
14594;BME280;7383;52.354;9.756;2023-01-28T05:05:08;-12554.44;;;5.68;100.00
14594;BME280;7383;52.354;9.756;2023-01-28T05:07:34;-12554.28;;;5.67;100.00
14594;BME280;7383;52.354;9.756;2023-01-28T05:10:01;-12553.66;;;5.63;100.00
14594;BME280;7383;52.354;9.756;2023-01-28T05:12:27;-12554.00;;;5.65;100.00
14594;BME280;7383;52.354;9.756;2023-01-28T05:14:55;-12553.91;;;5.65;100.00
14594;BME280;7383;52.354;9.756;2023-01-28T05:17:22;-12553.13;;;5.60;100.00
14594;BME280;7383;52.354;9.756;2023-01-28T05:19:48;-12552.97;;;5.59;100.00
14594;BME280;7383;52.354;9.756;2023-01-28T05:22:15;-12552.69;;;5.58;100.00
14594;BME280;7383;52.354;9.756;2023-01-28T05:24:41;-12553.13;;;5.60;100.00
14594;BME280;7383;52.354;9.756;2023-01-28T05:27:08;-12552.69;;;5.58;100.00
14594;BME280;7383;52.354;9.756;2023-01-28T05:29:34;-12552.88;;;5.59;100.00
14594;BME280;7383;52.354;9.756;2023-01-28T05:32:02;-12552.44;;;5.56;100.00
14594;BME280;7383;52.354;9.756;2023-01-28T05:34:29;-12552.16;;;5.55;100.00
14594;BME280;7383;52.354;9.756;2023-01-28T05:36:55;-12550.22;;;5.43;100.00
14594;BME280;7383;52.354;9.756;2023-01-28T05:39:22;-12549.34;;;5.38;100.00
14594;BME280;7383;52.354;9.756;2023-01-28T05:41:48;-12549.97;;;5.42;100.00
14594;BME280;7383;52.354;9.756;2023-01-28T05:44:14;-12550.31;;;5.44;100.00
14594;BME280;7383;52.354;9.756;2023-01-28T05:46:41;-12551.03;;;5.48;100.00
14594;BME280;7383;52.354;9.756;2023-01-28T05:49:12;-12551.19;;;5.49;100.00
14594;BME280;7383;52.354;9.756;2023-01-28T05:51:38;-12551.47;;;5.51;100.00
14594;BME280;7383;52.354;9.756;2023-01-28T05:54:05;-12551.72;;;5.52;100.00
14594;BME280;7383;52.354;9.756;2023-01-28T05:56:31;-12551.97;;;5.54;100.00
14594;BME280;7383;52.354;9.756;2023-01-28T05:58:59;-12551.47;;;5.51;100.00
14594;BME280;7383;52.354;9.756;2023-01-28T06:01:25;-12551.97;;;5.54;100.00
14594;BME280;7383;52.354;9.756;2023-01-28T06:03:52;-12551.97;;;5.54;100.00
14594;BME280;7383;52.354;9.756;2023-01-28T06:06:19;-12552.06;;;5.54;100.00
14594;BME280;7383;52.354;9.756;2023-01-28T06:08:48;-12551.81;;;5.53;100.00
14594;BME280;7383;52.354;9.756;2023-01-28T06:11:15;-12552.06;;;5.54;100.00
14594;BME280;7383;52.354;9.756;2023-01-28T06:13:41;-12551.47;;;5.51;100.00
14594;BME280;7383;52.354;9.756;2023-01-28T06:16:07;-12551.53;;;5.51;100.00
14594;BME280;7383;52.354;9.756;2023-01-28T06:18:34;-12551.63;;;5.52;100.00
14594;BME280;7383;52.354;9.756;2023-01-28T06:21:00;-12551.81;;;5.53;100.00
14594;BME280;7383;52.354;9.756;2023-01-28T06:23:28;-12551.91;;;5.53;100.00
14594;BME280;7383;52.354;9.756;2023-01-28T06:25:55;-12551.19;;;5.49;100.00
14594;BME280;7383;52.354;9.756;2023-01-28T06:28:22;-12550.94;;;5.47;100.00
14594;BME280;7383;52.354;9.756;2023-01-28T06:30:49;-12550.50;;;5.45;100.00
14594;BME280;7383;52.354;9.756;2023-01-28T06:33:16;-12551.09;;;5.49;100.00
14594;BME280;7383;52.354;9.756;2023-01-28T06:35:43;-12551.28;;;5.50;100.00
14594;BME280;7383;52.354;9.756;2023-01-28T06:38:09;-12550.75;;;5.46;100.00
14594;BME280;7383;52.354;9.756;2023-01-28T06:40:37;-12550.41;;;5.44;100.00
14594;BME280;7383;52.354;9.756;2023-01-28T06:43:04;-12550.41;;;5.44;100.00
14594;BME280;7383;52.354;9.756;2023-01-28T06:45:31;-12549.44;;;5.39;100.00
14594;BME280;7383;52.354;9.756;2023-01-28T06:47:58;-12549.09;;;5.37;100.00
14594;BME280;7383;52.354;9.756;2023-01-28T06:50:25;-12549.16;;;5.37;100.00
14594;BME280;7383;52.354;9.756;2023-01-28T06:52:51;-12549.88;;;5.41;100.00
14594;BME280;7383;52.354;9.756;2023-01-28T06:55:18;-12549.59;;;5.40;100.00
14594;BME280;7383;52.354;9.756;2023-01-28T06:57:45;-12549.16;;;5.37;100.00
14594;BME280;7383;52.354;9.756;2023-01-28T07:00:12;-12549.16;;;5.37;100.00
14594;BME280;7383;52.354;9.756;2023-01-28T07:02:40;-12549.16;;;5.37;100.00
14594;BME280;7383;52.354;9.756;2023-01-28T07:05:07;-12547.41;;;5.27;100.00
14594;BME280;7383;52.354;9.756;2023-01-28T07:07:33;-12548.56;;;5.34;100.00
14594;BME280;7383;52.354;9.756;2023-01-28T07:10:00;-12548.81;;;5.35;100.00
14594;BME280;7383;52.354;9.756;2023-01-28T07:12:26;-12550.31;;;5.44;100.00
14594;BME280;7383;52.354;9.756;2023-01-28T07:14:54;-12549.88;;;5.41;100.00
14594;BME280;7383;52.354;9.756;2023-01-28T07:17:20;-12549.59;;;5.40;100.00
14594;BME280;7383;52.354;9.756;2023-01-28T07:19:47;-12549.59;;;5.40;100.00
14594;BME280;7383;52.354;9.756;2023-01-28T07:22:13;-12549.16;;;5.37;100.00
14594;BME280;7383;52.354;9.756;2023-01-28T07:24:39;-12549.25;;;5.38;100.00
14594;BME280;7383;52.354;9.756;2023-01-28T07:27:06;-12549.53;;;5.39;100.00
14594;BME280;7383;52.354;9.756;2023-01-28T07:29:32;-12549.59;;;5.40;100.00
14594;BME280;7383;52.354;9.756;2023-01-28T07:32:00;-12550.13;;;5.43;100.00
14594;BME280;7383;52.354;9.756;2023-01-28T07:34:26;-12549.69;;;5.40;100.00
14594;BME280;7383;52.354;9.756;2023-01-28T07:36:53;-12549.25;;;5.38;100.00
14594;BME280;7383;52.354;9.756;2023-01-28T07:39:20;-12548.81;;;5.35;100.00
14594;BME280;7383;52.354;9.756;2023-01-28T07:41:46;-12548.91;;;5.36;100.00
14594;BME280;7383;52.354;9.756;2023-01-28T07:44:12;-12549.09;;;5.37;100.00
14594;BME280;7383;52.354;9.756;2023-01-28T07:46:39;-12548.91;;;5.36;100.00
14594;BME280;7383;52.354;9.756;2023-01-28T07:49:12;-12549.25;;;5.38;100.00
14594;BME280;7383;52.354;9.756;2023-01-28T07:51:38;-12547.22;;;5.26;100.00
14594;BME280;7383;52.354;9.756;2023-01-28T07:54:05;-12546.09;;;5.20;100.00
14594;BME280;7383;52.354;9.756;2023-01-28T07:56:33;-12545.28;;;5.15;100.00
14594;BME280;7383;52.354;9.756;2023-01-28T07:59:10;-12545.81;;;5.18;100.00
14594;BME280;7383;52.354;9.756;2023-01-28T08:01:37;-12545.22;;;5.15;100.00
14594;BME280;7383;52.354;9.756;2023-01-28T08:04:09;-12546.63;;;5.23;100.00
14594;BME280;7383;52.354;9.756;2023-01-28T08:06:36;-12547.22;;;5.26;100.00
14594;BME280;7383;52.354;9.756;2023-01-28T08:09:08;-12547.75;;;5.29;100.00
14594;BME280;7383;52.354;9.756;2023-01-28T08:11:38;-12548.66;;;5.34;100.00
14594;BME280;7383;52.354;9.756;2023-01-28T08:14:05;-12549.34;;;5.38;100.00
14594;BME280;7383;52.354;9.756;2023-01-28T08:16:31;-12550.06;;;5.42;100.00
14594;BME280;7383;52.354;9.756;2023-01-28T08:18:58;-12550.56;;;5.45;100.00
14594;BME280;7383;52.354;9.756;2023-01-28T08:21:26;-12551.03;;;5.48;100.00
14594;BME280;7383;52.354;9.756;2023-01-28T08:23:52;-12549.53;;;5.39;100.00
14594;BME280;7383;52.354;9.756;2023-01-28T08:26:20;-12550.06;;;5.42;100.00
14594;BME280;7383;52.354;9.756;2023-01-28T08:28:47;-12550.75;;;5.46;100.00
14594;BME280;7383;52.354;9.756;2023-01-28T08:31:14;-12552.44;;;5.56;100.00
14594;BME280;7383;52.354;9.756;2023-01-28T08:33:45;-12552.16;;;5.55;100.00
14594;BME280;7383;52.354;9.756;2023-01-28T08:36:11;-12553.66;;;5.63;100.00
14594;BME280;7383;52.354;9.756;2023-01-28T08:38:43;-12553.56;;;5.63;100.00
14594;BME280;7383;52.354;9.756;2023-01-28T08:41:41;-12554.81;;;5.70;100.00
14594;BME280;7383;52.354;9.756;2023-01-28T08:44:07;-12555.25;;;5.72;100.00
14594;BME280;7383;52.354;9.756;2023-01-28T08:46:34;-12555.94;;;5.76;100.00
14594;BME280;7383;52.354;9.756;2023-01-28T08:49:00;-12555.69;;;5.75;100.00
14594;BME280;7383;52.354;9.756;2023-01-28T08:51:27;-12555.25;;;5.72;100.00
14594;BME280;7383;52.354;9.756;2023-01-28T08:53:55;-12554.00;;;5.65;100.00
14594;BME280;7383;52.354;9.756;2023-01-28T08:56:21;-12555.06;;;5.71;100.00
14594;BME280;7383;52.354;9.756;2023-01-28T08:58:48;-12554.81;;;5.70;100.00
14594;BME280;7383;52.354;9.756;2023-01-28T09:01:14;-12555.94;;;5.76;100.00
14594;BME280;7383;52.354;9.756;2023-01-28T09:03:41;-12557.19;;;5.83;100.00
14594;BME280;7383;52.354;9.756;2023-01-28T09:06:07;-12556.91;;;5.82;100.00
14594;BME280;7383;52.354;9.756;2023-01-28T09:08:34;-12556.81;;;5.81;100.00
14594;BME280;7383;52.354;9.756;2023-01-28T09:11:05;-12557.44;;;5.85;100.00
14594;BME280;7383;52.354;9.756;2023-01-28T09:13:41;-12557.72;;;5.86;100.00
14594;BME280;7383;52.354;9.756;2023-01-28T09:16:09;-12558.75;;;5.92;100.00
14594;BME280;7383;52.354;9.756;2023-01-28T09:18:36;-12557.63;;;5.86;100.00
14594;BME280;7383;52.354;9.756;2023-01-28T09:21:03;-12556.31;;;5.78;100.00
14594;BME280;7383;52.354;9.756;2023-01-28T09:23:33;-12553.22;;;5.61;100.00
14594;BME280;7383;52.354;9.756;2023-01-28T09:26:00;-12552.88;;;5.59;100.00
14594;BME280;7383;52.354;9.756;2023-01-28T09:28:28;-12552.69;;;5.58;100.00
14594;BME280;7383;52.354;9.756;2023-01-28T09:31:00;-12552.97;;;5.59;100.00
14594;BME280;7383;52.354;9.756;2023-01-28T09:33:26;-12552.88;;;5.59;100.00
14594;BME280;7383;52.354;9.756;2023-01-28T09:35:53;-12553.47;;;5.62;100.00
14594;BME280;7383;52.354;9.756;2023-01-28T09:38:21;-12553.66;;;5.63;100.00
14594;BME280;7383;52.354;9.756;2023-01-28T09:40:48;-12553.75;;;5.64;100.00
14594;BME280;7383;52.354;9.756;2023-01-28T09:43:37;-12552.34;;;5.56;100.00
14594;BME280;7383;52.354;9.756;2023-01-28T09:46:10;-12552.44;;;5.56;100.00
14594;BME280;7383;52.354;9.756;2023-01-28T09:48:41;-12554.09;;;5.66;100.00
14594;BME280;7383;52.354;9.756;2023-01-28T09:51:18;-12553.84;;;5.64;100.00
14594;BME280;7383;52.354;9.756;2023-01-28T09:53:51;-12554.44;;;5.68;100.00
14594;BME280;7383;52.354;9.756;2023-01-28T09:56:24;-12555.25;;;5.72;100.00
14594;BME280;7383;52.354;9.756;2023-01-28T09:58:52;-12555.50;;;5.74;100.00
14594;BME280;7383;52.354;9.756;2023-01-28T10:01:34;-12554.97;;;5.71;100.00
14594;BME280;7383;52.354;9.756;2023-01-28T10:04:11;-12554.00;;;5.65;100.00
14594;BME280;7383;52.354;9.756;2023-01-28T10:06:51;-12553.03;;;5.60;100.00
14594;BME280;7383;52.354;9.756;2023-01-28T10:09:32;-12552.50;;;5.57;100.00
14594;BME280;7383;52.354;9.756;2023-01-28T10:15:17;-12549.78;;;5.41;100.00
14594;BME280;7383;52.354;9.756;2023-01-28T10:17:47;-12550.13;;;5.43;100.00
14594;BME280;7383;52.354;9.756;2023-01-28T10:20:47;-12549.44;;;5.39;100.00
14594;BME280;7383;52.354;9.756;2023-01-28T10:23:24;-12549.78;;;5.41;100.00
14594;BME280;7383;52.354;9.756;2023-01-28T10:25:55;-12549.97;;;5.42;100.00
14594;BME280;7383;52.354;9.756;2023-01-28T10:28:34;-12550.66;;;5.46;100.00
14594;BME280;7383;52.354;9.756;2023-01-28T10:31:13;-12551.81;;;5.53;100.00
14594;BME280;7383;52.354;9.756;2023-01-28T10:33:43;-12553.41;;;5.62;100.00
14594;BME280;7383;52.354;9.756;2023-01-28T10:36:10;-12555.16;;;5.72;100.00
14594;BME280;7383;52.354;9.756;2023-01-28T10:38:37;-12557.09;;;5.83;100.00
14594;BME280;7383;52.354;9.756;2023-01-28T10:43:38;-12557.09;;;5.83;100.00
14594;BME280;7383;52.354;9.756;2023-01-28T10:44:35;-12556.56;;;5.80;100.00
14594;BME280;7383;52.354;9.756;2023-01-28T10:47:12;-12558.25;;;5.89;100.00
14594;BME280;7383;52.354;9.756;2023-01-28T10:49:43;-12559.28;;;5.96;100.00
14594;BME280;7383;52.354;9.756;2023-01-28T10:52:39;-12559.03;;;5.94;100.00
14594;BME280;7383;52.354;9.756;2023-01-28T10:55:48;-12558.69;;;5.92;100.00
14594;BME280;7383;52.354;9.756;2023-01-28T10:58:46;-12558.69;;;5.92;100.00
14594;BME280;7383;52.354;9.756;2023-01-28T11:01:25;-12557.72;;;5.86;100.00
14594;BME280;7383;52.354;9.756;2023-01-28T11:04:12;-12555.69;;;5.75;100.00
14594;BME280;7383;52.354;9.756;2023-01-28T11:06:41;-12556.47;;;5.79;100.00
14594;BME280;7383;52.354;9.756;2023-01-28T11:09:22;-12557.97;;;5.88;100.00
14594;BME280;7383;52.354;9.756;2023-01-28T11:11:49;-12556.31;;;5.78;100.00
14594;BME280;7383;52.354;9.756;2023-01-28T11:14:20;-12555.50;;;5.74;100.00
14594;BME280;7383;52.354;9.756;2023-01-28T11:16:50;-12555.59;;;5.74;100.00
14594;BME280;7383;52.354;9.756;2023-01-28T11:19:37;-12555.84;;;5.76;100.00
14594;BME280;7383;52.354;9.756;2023-01-28T11:25:06;-12555.84;;;5.76;100.00
14594;BME280;7383;52.354;9.756;2023-01-28T11:27:46;-12556.22;;;5.78;100.00
14594;BME280;7383;52.354;9.756;2023-01-28T11:30:20;-12556.56;;;5.80;100.00
14594;BME280;7383;52.354;9.756;2023-01-28T11:32:55;-12556.81;;;5.81;100.00
14594;BME280;7383;52.354;9.756;2023-01-28T11:35:25;-12556.38;;;5.79;100.00
14594;BME280;7383;52.354;9.756;2023-01-28T11:37:54;-12553.75;;;5.64;100.00
14594;BME280;7383;52.354;9.756;2023-01-28T11:40:21;-12552.16;;;5.55;100.00
14594;BME280;7383;52.354;9.756;2023-01-28T11:42:50;-12551.53;;;5.51;100.00
14594;BME280;7383;52.354;9.756;2023-01-28T11:45:18;-12552.06;;;5.54;100.00
14594;BME280;7383;52.354;9.756;2023-01-28T11:47:59;-12554.88;;;5.70;100.00
14594;BME280;7383;52.354;9.756;2023-01-28T11:50:34;-12555.41;;;5.73;100.00
14594;BME280;7383;52.354;9.756;2023-01-28T11:53:45;-12556.75;;;5.81;100.00
14594;BME280;7383;52.354;9.756;2023-01-28T11:56:24;-12556.47;;;5.79;100.00
14594;BME280;7383;52.354;9.756;2023-01-28T11:59:03;-12567.03;;;6.40;100.00
14594;BME280;7383;52.354;9.756;2023-01-28T12:01:39;-12570.47;;;6.60;100.00
14594;BME280;7383;52.354;9.756;2023-01-28T12:04:31;-12574.75;;;6.84;100.00
14594;BME280;7383;52.354;9.756;2023-01-28T12:07:17;-12575.72;;;6.90;100.00
14594;BME280;7383;52.354;9.756;2023-01-28T12:09:50;-12577.75;;;7.02;100.00
14594;BME280;7383;52.354;9.756;2023-01-28T12:12:34;-12581.34;;;7.22;100.00
14594;BME280;7383;52.354;9.756;2023-01-28T12:15:25;-12584.44;;;7.40;100.00
14594;BME280;7383;52.354;9.756;2023-01-28T12:18:06;-12584.25;;;7.39;100.00
14594;BME280;7383;52.354;9.756;2023-01-28T12:20:47;-12602.41;;;8.44;100.00
14594;BME280;7383;52.354;9.756;2023-01-28T12:23:31;-12622.63;;;9.60;100.00
14594;BME280;7383;52.354;9.756;2023-01-28T12:26:08;-12664.03;;;12.00;100.00
14594;BME280;7383;52.354;9.756;2023-01-28T12:28:55;-12694.06;;;13.74;100.00
14594;BME280;7383;52.354;9.756;2023-01-28T12:31:37;-12741.13;;;16.48;100.00
14594;BME280;7383;52.354;9.756;2023-01-28T12:34:39;-12770.94;;;18.23;100.00
14594;BME280;7383;52.354;9.756;2023-01-28T12:37:15;-12743.38;;;16.61;100.00
14594;BME280;7383;52.354;9.756;2023-01-28T12:39:56;-12737.06;;;16.24;100.00
14594;BME280;7383;52.354;9.756;2023-01-28T12:42:32;-12751.59;;;17.09;100.00
14594;BME280;7383;52.354;9.756;2023-01-28T12:45:12;-12773.53;;;18.38;100.00
14594;BME280;7383;52.354;9.756;2023-01-28T12:47:45;-12780.34;;;18.78;100.00
14594;BME280;7383;52.354;9.756;2023-01-28T12:50:20;-12789.38;;;19.31;100.00
14594;BME280;7383;52.354;9.756;2023-01-28T12:53:13;-12779.31;;;18.72;100.00
14594;BME280;7383;52.354;9.756;2023-01-28T12:55:55;-12723.56;;;15.46;100.00
14594;BME280;7383;52.354;9.756;2023-01-28T12:58:34;-12720.97;;;15.31;100.00
14594;BME280;7383;52.354;9.756;2023-01-28T13:01:06;-12701.25;;;14.16;100.00
14594;BME280;7383;52.354;9.756;2023-01-28T13:03:39;-12674.66;;;12.61;100.00
14594;BME280;7383;52.354;9.756;2023-01-28T13:06:11;-12658.19;;;11.66;100.00
14594;BME280;7383;52.354;9.756;2023-01-28T13:08:41;-12647.63;;;11.05;100.00
14594;BME280;7383;52.354;9.756;2023-01-28T13:11:11;-12632.69;;;10.18;100.00
14594;BME280;7383;52.354;9.756;2023-01-28T13:13:41;-12623.34;;;9.64;100.00
14594;BME280;7383;52.354;9.756;2023-01-28T13:16:12;-12614.75;;;9.15;100.00
14594;BME280;7383;52.354;9.756;2023-01-28T13:18:43;-12606.53;;;8.67;100.00
14594;BME280;7383;52.354;9.756;2023-01-28T13:21:32;-12601.44;;;8.38;100.00
14594;BME280;7383;52.354;9.756;2023-01-28T13:24:16;-12600.13;;;8.30;100.00
14594;BME280;7383;52.354;9.756;2023-01-28T13:26:46;-12605.22;;;8.60;100.00
14594;BME280;7383;52.354;9.756;2023-01-28T13:29:30;-12616.06;;;9.22;100.00
14594;BME280;7383;52.354;9.756;2023-01-28T13:31:58;-12612.75;;;9.03;100.00
14594;BME280;7383;52.354;9.756;2023-01-28T13:34:29;-12613.28;;;9.06;100.00